sensor_id;sensor_type;location;lat;lon;timestamp;pressure;altitude;pressure_sealevel;temperature;humidity
48530;BME280;34927;37.302;-121.982;2023-02-10T00:01:00;101635.0;;;25.15;31.38
48530;BME280;34927;37.302;-121.982;2023-02-10T00:02:07;101633.0;;;25.27;31.30
48530;BME280;34927;37.302;-121.982;2023-02-10T00:03:12;101633.0;;;25.25;31.46
48530;BME280;34927;37.302;-121.982;2023-02-10T00:04:16;101632.0;;;25.30;31.34
48530;BME280;34927;37.302;-121.982;2023-02-10T00:05:22;101632.0;;;25.25;31.43
48530;BME280;34927;37.302;-121.982;2023-02-10T00:06:27;101631.0;;;25.21;31.55
48530;BME280;34927;37.302;-121.982;2023-02-10T00:07:32;101630.0;;;25.34;31.43
48530;BME280;34927;37.302;-121.982;2023-02-10T00:08:37;101628.0;;;25.30;31.55
48530;BME280;34927;37.302;-121.982;2023-02-10T00:09:41;101627.0;;;25.28;31.58
48530;BME280;34927;37.302;-121.982;2023-02-10T00:10:46;101629.0;;;25.35;31.48
48530;BME280;34927;37.302;-121.982;2023-02-10T00:11:51;101627.0;;;25.33;31.62
48530;BME280;34927;37.302;-121.982;2023-02-10T00:12:56;101630.0;;;25.39;31.54
48530;BME280;34927;37.302;-121.982;2023-02-10T00:14:02;101632.0;;;25.41;31.51
48530;BME280;34927;37.302;-121.982;2023-02-10T00:15:07;101633.0;;;25.37;31.62
48530;BME280;34927;37.302;-121.982;2023-02-10T00:16:14;101632.0;;;25.41;31.60
48530;BME280;34927;37.302;-121.982;2023-02-10T00:17:17;101636.0;;;25.39;31.60
48530;BME280;34927;37.302;-121.982;2023-02-10T00:18:22;101635.0;;;25.39;31.80
48530;BME280;34927;37.302;-121.982;2023-02-10T00:19:28;101638.0;;;25.39;31.89
48530;BME280;34927;37.302;-121.982;2023-02-10T00:20:31;101638.0;;;25.37;31.83
48530;BME280;34927;37.302;-121.982;2023-02-10T00:21:36;101638.0;;;25.55;31.60
48530;BME280;34927;37.302;-121.982;2023-02-10T00:22:42;101636.0;;;25.55;31.54
48530;BME280;34927;37.302;-121.982;2023-02-10T00:23:46;101639.0;;;25.54;31.64
48530;BME280;34927;37.302;-121.982;2023-02-10T00:24:52;101639.0;;;25.60;31.49
48530;BME280;34927;37.302;-121.982;2023-02-10T00:25:57;101641.0;;;25.61;31.49
48530;BME280;34927;37.302;-121.982;2023-02-10T00:27:02;101644.0;;;25.59;31.67
48530;BME280;34927;37.302;-121.982;2023-02-10T00:28:07;101646.0;;;25.61;31.60
48530;BME280;34927;37.302;-121.982;2023-02-10T00:29:11;101650.0;;;25.59;31.62
48530;BME280;34927;37.302;-121.982;2023-02-10T00:30:17;101652.0;;;25.66;31.61
48530;BME280;34927;37.302;-121.982;2023-02-10T00:31:22;101656.0;;;25.61;31.66
48530;BME280;34927;37.302;-121.982;2023-02-10T00:32:26;101658.0;;;25.64;31.61
48530;BME280;34927;37.302;-121.982;2023-02-10T00:33:32;101660.0;;;25.67;31.63
48530;BME280;34927;37.302;-121.982;2023-02-10T00:34:36;101663.0;;;25.73;31.53
48530;BME280;34927;37.302;-121.982;2023-02-10T00:35:42;101663.0;;;25.72;31.58
48530;BME280;34927;37.302;-121.982;2023-02-10T00:36:49;101666.0;;;25.80;31.55
48530;BME280;34927;37.302;-121.982;2023-02-10T00:37:51;101668.0;;;25.73;31.62
48530;BME280;34927;37.302;-121.982;2023-02-10T00:38:57;101672.0;;;25.70;31.89
48530;BME280;34927;37.302;-121.982;2023-02-10T00:40:02;101676.0;;;25.71;31.97
48530;BME280;34927;37.302;-121.982;2023-02-10T00:41:08;101680.0;;;25.66;32.00
48530;BME280;34927;37.302;-121.982;2023-02-10T00:42:12;101679.0;;;25.83;31.82
48530;BME280;34927;37.302;-121.982;2023-02-10T00:43:17;101680.0;;;25.88;31.79
48530;BME280;34927;37.302;-121.982;2023-02-10T00:44:21;101680.0;;;25.83;31.70
48530;BME280;34927;37.302;-121.982;2023-02-10T00:45:27;101681.0;;;25.78;31.98
48530;BME280;34927;37.302;-121.982;2023-02-10T00:46:32;101683.0;;;25.79;31.83
48530;BME280;34927;37.302;-121.982;2023-02-10T00:47:37;101683.0;;;25.81;31.79
48530;BME280;34927;37.302;-121.982;2023-02-10T00:48:42;101682.0;;;25.91;31.82
48530;BME280;34927;37.302;-121.982;2023-02-10T00:49:47;101686.0;;;25.80;31.94
48530;BME280;34927;37.302;-121.982;2023-02-10T00:50:52;101688.0;;;25.68;32.06
48530;BME280;34927;37.302;-121.982;2023-02-10T00:51:57;101688.0;;;25.73;32.20
48530;BME280;34927;37.302;-121.982;2023-02-10T00:53:01;101688.0;;;25.70;32.08
48530;BME280;34927;37.302;-121.982;2023-02-10T00:54:06;101689.0;;;25.67;32.23
48530;BME280;34927;37.302;-121.982;2023-02-10T00:55:13;101689.0;;;25.63;32.25
48530;BME280;34927;37.302;-121.982;2023-02-10T00:56:17;101688.0;;;25.58;32.19
48530;BME280;34927;37.302;-121.982;2023-02-10T00:57:22;101688.0;;;25.71;32.08
48530;BME280;34927;37.302;-121.982;2023-02-10T00:58:27;101690.0;;;25.62;32.29
48530;BME280;34927;37.302;-121.982;2023-02-10T00:59:32;101693.0;;;25.60;32.35
48530;BME280;34927;37.302;-121.982;2023-02-10T01:00:37;101697.0;;;25.66;32.39
48530;BME280;34927;37.302;-121.982;2023-02-10T01:01:42;101696.0;;;25.59;32.48
48530;BME280;34927;37.302;-121.982;2023-02-10T01:02:47;101698.0;;;25.59;32.39
48530;BME280;34927;37.302;-121.982;2023-02-10T01:03:52;101699.0;;;25.70;32.34
48530;BME280;34927;37.302;-121.982;2023-02-10T01:04:57;101699.0;;;25.64;32.35
48530;BME280;34927;37.302;-121.982;2023-02-10T01:06:02;101698.0;;;25.59;32.54
48530;BME280;34927;37.302;-121.982;2023-02-10T01:07:06;101695.0;;;25.50;32.70
48530;BME280;34927;37.302;-121.982;2023-02-10T01:08:12;101697.0;;;25.57;32.73
48530;BME280;34927;37.302;-121.982;2023-02-10T01:09:16;101698.0;;;25.63;32.51
48530;BME280;34927;37.302;-121.982;2023-02-10T01:10:21;101699.0;;;25.56;32.80
48530;BME280;34927;37.302;-121.982;2023-02-10T01:11:27;101698.0;;;25.57;32.63
48530;BME280;34927;37.302;-121.982;2023-02-10T01:12:32;101700.0;;;25.68;32.59
48530;BME280;34927;37.302;-121.982;2023-02-10T01:13:38;101701.0;;;25.77;32.66
48530;BME280;34927;37.302;-121.982;2023-02-10T01:14:42;101702.0;;;25.70;32.56
48530;BME280;34927;37.302;-121.982;2023-02-10T01:15:47;101702.0;;;25.69;32.71
48530;BME280;34927;37.302;-121.982;2023-02-10T01:16:51;101702.0;;;25.68;32.56
48530;BME280;34927;37.302;-121.982;2023-02-10T01:17:57;101706.0;;;25.80;32.59
48530;BME280;34927;37.302;-121.982;2023-02-10T01:19:02;101708.0;;;25.80;32.54
48530;BME280;34927;37.302;-121.982;2023-02-10T01:20:07;101710.0;;;25.74;32.66
48530;BME280;34927;37.302;-121.982;2023-02-10T01:21:14;101713.0;;;25.80;32.62
48530;BME280;34927;37.302;-121.982;2023-02-10T01:22:22;101714.0;;;25.69;32.72
48530;BME280;34927;37.302;-121.982;2023-02-10T01:23:26;101714.0;;;25.66;32.82
48530;BME280;34927;37.302;-121.982;2023-02-10T01:24:32;101717.0;;;25.74;32.66
48530;BME280;34927;37.302;-121.982;2023-02-10T01:25:37;101717.0;;;25.69;32.74
48530;BME280;34927;37.302;-121.982;2023-02-10T01:26:41;101713.0;;;25.50;32.99
48530;BME280;34927;37.302;-121.982;2023-02-10T01:27:47;101714.0;;;25.43;33.12
48530;BME280;34927;37.302;-121.982;2023-02-10T01:28:52;101712.0;;;25.38;33.24
48530;BME280;34927;37.302;-121.982;2023-02-10T01:29:57;101711.0;;;25.36;33.20
48530;BME280;34927;37.302;-121.982;2023-02-10T01:31:05;101709.0;;;25.45;33.09
48530;BME280;34927;37.302;-121.982;2023-02-10T01:32:12;101709.0;;;25.44;33.18
48530;BME280;34927;37.302;-121.982;2023-02-10T01:33:17;101707.0;;;25.39;33.31
48530;BME280;34927;37.302;-121.982;2023-02-10T01:34:23;101706.0;;;25.44;33.24
48530;BME280;34927;37.302;-121.982;2023-02-10T01:35:27;101706.0;;;25.44;33.25
48530;BME280;34927;37.302;-121.982;2023-02-10T01:36:32;101706.0;;;25.45;33.27
48530;BME280;34927;37.302;-121.982;2023-02-10T01:37:36;101706.0;;;25.27;33.85
48530;BME280;34927;37.302;-121.982;2023-02-10T01:38:42;101705.0;;;25.27;32.57
48530;BME280;34927;37.302;-121.982;2023-02-10T01:39:46;101707.0;;;25.13;32.83
48530;BME280;34927;37.302;-121.982;2023-02-10T01:40:52;101706.0;;;25.14;31.89
48530;BME280;34927;37.302;-121.982;2023-02-10T01:41:56;101707.0;;;25.09;31.40
48530;BME280;34927;37.302;-121.982;2023-02-10T01:43:02;101710.0;;;25.05;31.38
48530;BME280;34927;37.302;-121.982;2023-02-10T01:45:27;101714.0;;;24.74;31.22
48530;BME280;34927;37.302;-121.982;2023-02-10T01:46:33;101718.0;;;24.68;31.19
48530;BME280;34927;37.302;-121.982;2023-02-10T01:47:37;101719.0;;;24.62;31.19
48530;BME280;34927;37.302;-121.982;2023-02-10T01:48:42;101719.0;;;24.66;31.03
48530;BME280;34927;37.302;-121.982;2023-02-10T01:49:49;101720.0;;;24.61;31.02
48530;BME280;34927;37.302;-121.982;2023-02-10T01:50:54;101723.0;;;24.63;31.10
48530;BME280;34927;37.302;-121.982;2023-02-10T01:52:05;101721.0;;;24.62;31.09
48530;BME280;34927;37.302;-121.982;2023-02-10T01:53:12;101721.0;;;24.62;31.16
48530;BME280;34927;37.302;-121.982;2023-02-10T01:54:20;101724.0;;;24.54;31.14
48530;BME280;34927;37.302;-121.982;2023-02-10T01:55:30;101721.0;;;24.55;31.16
48530;BME280;34927;37.302;-121.982;2023-02-10T01:56:37;101719.0;;;24.55;31.23
48530;BME280;34927;37.302;-121.982;2023-02-10T01:57:44;101724.0;;;24.53;31.27
48530;BME280;34927;37.302;-121.982;2023-02-10T01:58:46;101721.0;;;24.59;31.18
48530;BME280;34927;37.302;-121.982;2023-02-10T01:59:52;101722.0;;;24.59;31.29
48530;BME280;34927;37.302;-121.982;2023-02-10T02:00:57;101722.0;;;24.65;31.21
48530;BME280;34927;37.302;-121.982;2023-02-10T02:02:03;101727.0;;;24.43;31.18
48530;BME280;34927;37.302;-121.982;2023-02-10T02:03:08;101728.0;;;24.47;30.93
48530;BME280;34927;37.302;-121.982;2023-02-10T02:04:12;101729.0;;;24.42;30.95
48530;BME280;34927;37.302;-121.982;2023-02-10T02:05:28;101732.0;;;24.42;30.94
48530;BME280;34927;37.302;-121.982;2023-02-10T02:06:33;101734.0;;;24.37;31.00
48530;BME280;34927;37.302;-121.982;2023-02-10T02:07:38;101737.0;;;24.41;30.92
48530;BME280;34927;37.302;-121.982;2023-02-10T02:08:42;101736.0;;;24.51;30.75
48530;BME280;34927;37.302;-121.982;2023-02-10T02:09:47;101737.0;;;24.43;30.86
48530;BME280;34927;37.302;-121.982;2023-02-10T02:10:59;101738.0;;;24.35;31.02
48530;BME280;34927;37.302;-121.982;2023-02-10T02:12:12;101738.0;;;24.30;31.07
48530;BME280;34927;37.302;-121.982;2023-02-10T02:13:22;101739.0;;;24.10;31.29
48530;BME280;34927;37.302;-121.982;2023-02-10T02:14:32;101738.0;;;24.18;31.27
48530;BME280;34927;37.302;-121.982;2023-02-10T02:15:39;101737.0;;;24.32;30.72
48530;BME280;34927;37.302;-121.982;2023-02-10T02:16:57;101733.0;;;24.39;30.89
48530;BME280;34927;37.302;-121.982;2023-02-10T02:18:07;101735.0;;;24.64;30.63
48530;BME280;34927;37.302;-121.982;2023-02-10T02:19:35;101733.0;;;24.92;30.22
48530;BME280;34927;37.302;-121.982;2023-02-10T02:21:02;101734.0;;;25.21;29.74
48530;BME280;34927;37.302;-121.982;2023-02-10T02:22:35;101736.0;;;25.25;29.68
48530;BME280;34927;37.302;-121.982;2023-02-10T02:24:00;101736.0;;;25.22;29.86
48530;BME280;34927;37.302;-121.982;2023-02-10T02:25:18;101734.0;;;24.98;30.04
48530;BME280;34927;37.302;-121.982;2023-02-10T02:26:40;101733.0;;;24.89;30.32
48530;BME280;34927;37.302;-121.982;2023-02-10T02:28:05;101735.0;;;24.76;30.30
48530;BME280;34927;37.302;-121.982;2023-02-10T02:29:29;101734.0;;;24.66;30.36
48530;BME280;34927;37.302;-121.982;2023-02-10T02:31:57;101736.0;;;24.38;30.72
48530;BME280;34927;37.302;-121.982;2023-02-10T02:33:03;101738.0;;;24.30;30.85
48530;BME280;34927;37.302;-121.982;2023-02-10T02:34:15;101741.0;;;24.19;31.00
48530;BME280;34927;37.302;-121.982;2023-02-10T02:35:25;101741.0;;;24.22;30.94
48530;BME280;34927;37.302;-121.982;2023-02-10T02:36:36;101740.0;;;24.10;31.09
48530;BME280;34927;37.302;-121.982;2023-02-10T02:37:43;101741.0;;;24.38;30.76
48530;BME280;34927;37.302;-121.982;2023-02-10T02:38:46;101745.0;;;24.36;30.84
48530;BME280;34927;37.302;-121.982;2023-02-10T02:39:53;101743.0;;;24.26;31.01
48530;BME280;34927;37.302;-121.982;2023-02-10T02:40:57;101745.0;;;24.18;31.16
48530;BME280;34927;37.302;-121.982;2023-02-10T02:42:15;101745.0;;;24.18;31.20
48530;BME280;34927;37.302;-121.982;2023-02-10T02:43:23;101746.0;;;24.11;31.19
48530;BME280;34927;37.302;-121.982;2023-02-10T02:44:27;101748.0;;;24.06;31.29
48530;BME280;34927;37.302;-121.982;2023-02-10T02:45:39;101744.0;;;24.10;31.09
48530;BME280;34927;37.302;-121.982;2023-02-10T02:46:55;101744.0;;;24.13;31.11
48530;BME280;34927;37.302;-121.982;2023-02-10T02:48:11;101742.0;;;24.02;31.20
48530;BME280;34927;37.302;-121.982;2023-02-10T02:49:22;101741.0;;;24.06;31.15
48530;BME280;34927;37.302;-121.982;2023-02-10T02:50:35;101741.0;;;23.95;31.32
48530;BME280;34927;37.302;-121.982;2023-02-10T02:51:48;101742.0;;;23.94;31.39
48530;BME280;34927;37.302;-121.982;2023-02-10T02:53:07;101743.0;;;23.96;31.26
48530;BME280;34927;37.302;-121.982;2023-02-10T02:54:18;101742.0;;;23.84;31.46
48530;BME280;34927;37.302;-121.982;2023-02-10T02:55:34;101742.0;;;23.80;31.47
48530;BME280;34927;37.302;-121.982;2023-02-10T02:56:46;101743.0;;;23.87;31.39
48530;BME280;34927;37.302;-121.982;2023-02-10T02:57:55;101740.0;;;23.76;31.43
48530;BME280;34927;37.302;-121.982;2023-02-10T02:59:06;101743.0;;;23.81;31.42
48530;BME280;34927;37.302;-121.982;2023-02-10T03:00:14;101743.0;;;23.91;31.28
48530;BME280;34927;37.302;-121.982;2023-02-10T03:01:25;101743.0;;;23.81;31.29
48530;BME280;34927;37.302;-121.982;2023-02-10T03:02:32;101745.0;;;23.80;31.37
48530;BME280;34927;37.302;-121.982;2023-02-10T03:03:36;101745.0;;;23.78;31.32
48530;BME280;34927;37.302;-121.982;2023-02-10T03:04:42;101748.0;;;23.78;31.29
48530;BME280;34927;37.302;-121.982;2023-02-10T03:05:47;101746.0;;;23.85;31.16
48530;BME280;34927;37.302;-121.982;2023-02-10T03:06:51;101747.0;;;23.77;31.24
48530;BME280;34927;37.302;-121.982;2023-02-10T03:07:58;101750.0;;;23.81;31.16
48530;BME280;34927;37.302;-121.982;2023-02-10T03:09:01;101751.0;;;23.66;31.46
48530;BME280;34927;37.302;-121.982;2023-02-10T03:10:07;101753.0;;;23.70;31.45
48530;BME280;34927;37.302;-121.982;2023-02-10T03:11:11;101755.0;;;23.68;31.66
48530;BME280;34927;37.302;-121.982;2023-02-10T03:12:17;101753.0;;;23.82;31.41
48530;BME280;34927;37.302;-121.982;2023-02-10T03:13:22;101752.0;;;23.69;31.67
48530;BME280;34927;37.302;-121.982;2023-02-10T03:14:26;101753.0;;;23.71;31.68
48530;BME280;34927;37.302;-121.982;2023-02-10T03:15:31;101753.0;;;23.66;31.66
48530;BME280;34927;37.302;-121.982;2023-02-10T03:16:36;101757.0;;;23.72;31.66
48530;BME280;34927;37.302;-121.982;2023-02-10T03:17:42;101760.0;;;23.70;31.67
48530;BME280;34927;37.302;-121.982;2023-02-10T03:18:47;101759.0;;;23.69;31.63
48530;BME280;34927;37.302;-121.982;2023-02-10T03:19:51;101760.0;;;23.61;31.80
48530;BME280;34927;37.302;-121.982;2023-02-10T03:20:57;101759.0;;;23.55;31.84
48530;BME280;34927;37.302;-121.982;2023-02-10T03:22:01;101761.0;;;23.60;31.82
48530;BME280;34927;37.302;-121.982;2023-02-10T03:23:06;101760.0;;;23.51;31.91
48530;BME280;34927;37.302;-121.982;2023-02-10T03:24:13;101759.0;;;23.53;31.84
48530;BME280;34927;37.302;-121.982;2023-02-10T03:25:17;101759.0;;;23.52;31.88
48530;BME280;34927;37.302;-121.982;2023-02-10T03:26:21;101760.0;;;23.60;31.81
48530;BME280;34927;37.302;-121.982;2023-02-10T03:27:27;101758.0;;;23.56;31.80
48530;BME280;34927;37.302;-121.982;2023-02-10T03:28:31;101759.0;;;23.65;31.71
48530;BME280;34927;37.302;-121.982;2023-02-10T03:29:37;101759.0;;;23.63;31.77
48530;BME280;34927;37.302;-121.982;2023-02-10T03:30:42;101761.0;;;23.61;31.74
48530;BME280;34927;37.302;-121.982;2023-02-10T03:31:46;101761.0;;;23.48;31.92
48530;BME280;34927;37.302;-121.982;2023-02-10T03:32:52;101763.0;;;23.48;32.00
48530;BME280;34927;37.302;-121.982;2023-02-10T03:33:57;101762.0;;;23.48;32.00
48530;BME280;34927;37.302;-121.982;2023-02-10T03:35:02;101764.0;;;23.48;31.98
48530;BME280;34927;37.302;-121.982;2023-02-10T03:36:07;101764.0;;;23.45;32.03
48530;BME280;34927;37.302;-121.982;2023-02-10T03:37:12;101764.0;;;23.45;32.07
48530;BME280;34927;37.302;-121.982;2023-02-10T03:38:17;101766.0;;;23.36;32.15
48530;BME280;34927;37.302;-121.982;2023-02-10T03:39:22;101766.0;;;23.44;32.11
48530;BME280;34927;37.302;-121.982;2023-02-10T03:40:27;101767.0;;;23.42;32.23
48530;BME280;34927;37.302;-121.982;2023-02-10T03:41:32;101766.0;;;23.42;32.29
48530;BME280;34927;37.302;-121.982;2023-02-10T03:42:36;101767.0;;;23.30;32.48
48530;BME280;34927;37.302;-121.982;2023-02-10T03:43:42;101769.0;;;23.30;32.39
48530;BME280;34927;37.302;-121.982;2023-02-10T03:44:46;101769.0;;;23.25;32.49
48530;BME280;34927;37.302;-121.982;2023-02-10T03:45:52;101771.0;;;23.29;32.44
48530;BME280;34927;37.302;-121.982;2023-02-10T03:46:57;101771.0;;;23.19;32.59
48530;BME280;34927;37.302;-121.982;2023-02-10T03:48:02;101769.0;;;23.21;32.59
48530;BME280;34927;37.302;-121.982;2023-02-10T03:49:07;101768.0;;;23.31;32.48
48530;BME280;34927;37.302;-121.982;2023-02-10T03:50:12;101769.0;;;23.22;32.59
48530;BME280;34927;37.302;-121.982;2023-02-10T03:51:16;101765.0;;;23.06;32.88
48530;BME280;34927;37.302;-121.982;2023-02-10T03:52:22;101765.0;;;23.09;32.81
48530;BME280;34927;37.302;-121.982;2023-02-10T03:53:28;101765.0;;;23.07;32.86
48530;BME280;34927;37.302;-121.982;2023-02-10T03:54:31;101763.0;;;23.09;32.88
48530;BME280;34927;37.302;-121.982;2023-02-10T03:55:36;101762.0;;;23.07;32.87
48530;BME280;34927;37.302;-121.982;2023-02-10T03:56:41;101763.0;;;23.08;32.82
48530;BME280;34927;37.302;-121.982;2023-02-10T03:57:47;101765.0;;;23.05;32.93
48530;BME280;34927;37.302;-121.982;2023-02-10T03:58:52;101767.0;;;23.00;33.00
48530;BME280;34927;37.302;-121.982;2023-02-10T03:59:57;101767.0;;;23.03;32.90
48530;BME280;34927;37.302;-121.982;2023-02-10T04:01:09;101768.0;;;22.99;32.96
48530;BME280;34927;37.302;-121.982;2023-02-10T04:02:12;101769.0;;;23.01;33.01
48530;BME280;34927;37.302;-121.982;2023-02-10T04:03:17;101770.0;;;23.00;32.95
48530;BME280;34927;37.302;-121.982;2023-02-10T04:04:22;101768.0;;;22.88;33.12
48530;BME280;34927;37.302;-121.982;2023-02-10T04:05:27;101769.0;;;22.93;33.07
48530;BME280;34927;37.302;-121.982;2023-02-10T04:06:32;101768.0;;;22.91;33.10
48530;BME280;34927;37.302;-121.982;2023-02-10T04:07:37;101765.0;;;22.83;33.13
48530;BME280;34927;37.302;-121.982;2023-02-10T04:08:42;101765.0;;;22.88;33.14
48530;BME280;34927;37.302;-121.982;2023-02-10T04:09:46;101765.0;;;23.01;32.87
48530;BME280;34927;37.302;-121.982;2023-02-10T04:10:51;101760.0;;;23.24;32.59
48530;BME280;34927;37.302;-121.982;2023-02-10T04:11:57;101759.0;;;23.46;32.30
48530;BME280;34927;37.302;-121.982;2023-02-10T04:13:02;101755.0;;;23.77;31.78
48530;BME280;34927;37.302;-121.982;2023-02-10T04:14:06;101757.0;;;24.04;31.31
48530;BME280;34927;37.302;-121.982;2023-02-10T04:15:12;101757.0;;;24.08;31.17
48530;BME280;34927;37.302;-121.982;2023-02-10T04:16:17;101756.0;;;24.07;31.18
48530;BME280;34927;37.302;-121.982;2023-02-10T04:17:21;101757.0;;;23.94;31.41
48530;BME280;34927;37.302;-121.982;2023-02-10T04:18:27;101758.0;;;23.71;31.59
48530;BME280;34927;37.302;-121.982;2023-02-10T04:19:32;101757.0;;;23.58;31.75
48530;BME280;34927;37.302;-121.982;2023-02-10T04:20:36;101757.0;;;23.55;31.91
48530;BME280;34927;37.302;-121.982;2023-02-10T04:21:42;101755.0;;;23.44;31.99
48530;BME280;34927;37.302;-121.982;2023-02-10T04:22:47;101757.0;;;23.39;32.13
48530;BME280;34927;37.302;-121.982;2023-02-10T04:23:52;101758.0;;;23.32;32.22
48530;BME280;34927;37.302;-121.982;2023-02-10T04:24:57;101757.0;;;23.22;32.33
48530;BME280;34927;37.302;-121.982;2023-02-10T04:26:02;101761.0;;;23.17;32.42
48530;BME280;34927;37.302;-121.982;2023-02-10T04:27:07;101762.0;;;23.16;32.43
48530;BME280;34927;37.302;-121.982;2023-02-10T04:28:12;101763.0;;;23.08;32.56
48530;BME280;34927;37.302;-121.982;2023-02-10T04:29:16;101769.0;;;22.97;32.76
48530;BME280;34927;37.302;-121.982;2023-02-10T04:30:22;101767.0;;;22.99;32.76
48530;BME280;34927;37.302;-121.982;2023-02-10T04:31:27;101768.0;;;22.97;32.82
48530;BME280;34927;37.302;-121.982;2023-02-10T04:32:31;101768.0;;;22.93;32.91
48530;BME280;34927;37.302;-121.982;2023-02-10T04:33:37;101765.0;;;22.88;32.94
48530;BME280;34927;37.302;-121.982;2023-02-10T04:34:41;101765.0;;;22.94;32.92
48530;BME280;34927;37.302;-121.982;2023-02-10T04:35:47;101765.0;;;22.86;33.03
48530;BME280;34927;37.302;-121.982;2023-02-10T04:36:52;101762.0;;;22.89;33.05
48530;BME280;34927;37.302;-121.982;2023-02-10T04:37:57;101762.0;;;22.90;33.00
48530;BME280;34927;37.302;-121.982;2023-02-10T04:39:02;101760.0;;;22.87;33.12
48530;BME280;34927;37.302;-121.982;2023-02-10T04:40:07;101761.0;;;22.87;33.49
48530;BME280;34927;37.302;-121.982;2023-02-10T04:41:12;101757.0;;;22.79;34.01
48530;BME280;34927;37.302;-121.982;2023-02-10T04:42:17;101753.0;;;22.73;34.42
48530;BME280;34927;37.302;-121.982;2023-02-10T04:43:22;101752.0;;;22.68;34.57
48530;BME280;34927;37.302;-121.982;2023-02-10T04:44:27;101751.0;;;22.75;34.56
48530;BME280;34927;37.302;-121.982;2023-02-10T04:45:32;101750.0;;;22.71;34.75
48530;BME280;34927;37.302;-121.982;2023-02-10T04:46:37;101751.0;;;22.76;34.57
48530;BME280;34927;37.302;-121.982;2023-02-10T04:47:41;101754.0;;;22.79;34.45
48530;BME280;34927;37.302;-121.982;2023-02-10T04:48:46;101757.0;;;22.86;34.30
48530;BME280;34927;37.302;-121.982;2023-02-10T04:49:51;101756.0;;;22.93;34.18
48530;BME280;34927;37.302;-121.982;2023-02-10T04:50:57;101759.0;;;22.89;34.53
48530;BME280;34927;37.302;-121.982;2023-02-10T04:52:02;101758.0;;;22.80;34.69
48530;BME280;34927;37.302;-121.982;2023-02-10T04:53:07;101755.0;;;22.84;34.64
48530;BME280;34927;37.302;-121.982;2023-02-10T04:54:12;101751.0;;;22.86;34.54
48530;BME280;34927;37.302;-121.982;2023-02-10T04:55:17;101747.0;;;22.80;34.53
48530;BME280;34927;37.302;-121.982;2023-02-10T04:56:22;101743.0;;;23.04;33.99
48530;BME280;34927;37.302;-121.982;2023-02-10T04:57:27;101741.0;;;23.25;33.77
48530;BME280;34927;37.302;-121.982;2023-02-10T04:58:32;101740.0;;;23.57;33.26
48530;BME280;34927;37.302;-121.982;2023-02-10T04:59:36;101742.0;;;23.85;32.78
48530;BME280;34927;37.302;-121.982;2023-02-10T05:00:42;101739.0;;;24.06;32.38
48530;BME280;34927;37.302;-121.982;2023-02-10T05:01:47;101739.0;;;24.15;32.16
48530;BME280;34927;37.302;-121.982;2023-02-10T05:02:52;101739.0;;;24.09;32.44
48530;BME280;34927;37.302;-121.982;2023-02-10T05:03:57;101739.0;;;23.84;33.03
48530;BME280;34927;37.302;-121.982;2023-02-10T05:05:02;101738.0;;;23.68;33.32
48530;BME280;34927;37.302;-121.982;2023-02-10T05:06:10;101737.0;;;23.35;33.83
48530;BME280;34927;37.302;-121.982;2023-02-10T05:07:16;101737.0;;;23.21;34.06
48530;BME280;34927;37.302;-121.982;2023-02-10T05:08:22;101739.0;;;23.08;33.99
48530;BME280;34927;37.302;-121.982;2023-02-10T05:09:26;101736.0;;;23.01;34.08
48530;BME280;34927;37.302;-121.982;2023-02-10T05:10:32;101736.0;;;23.12;33.92
48530;BME280;34927;37.302;-121.982;2023-02-10T05:11:36;101738.0;;;23.09;33.91
48530;BME280;34927;37.302;-121.982;2023-02-10T05:12:42;101738.0;;;23.21;33.63
48530;BME280;34927;37.302;-121.982;2023-02-10T05:13:48;101738.0;;;23.14;33.71
48530;BME280;34927;37.302;-121.982;2023-02-10T05:14:51;101739.0;;;23.24;33.40
48530;BME280;34927;37.302;-121.982;2023-02-10T05:15:56;101739.0;;;22.94;33.89
48530;BME280;34927;37.302;-121.982;2023-02-10T05:17:03;101740.0;;;22.99;33.66
48530;BME280;34927;37.302;-121.982;2023-02-10T05:18:07;101739.0;;;22.93;33.86
48530;BME280;34927;37.302;-121.982;2023-02-10T05:19:12;101739.0;;;22.94;33.70
48530;BME280;34927;37.302;-121.982;2023-02-10T05:20:17;101741.0;;;22.78;34.02
48530;BME280;34927;37.302;-121.982;2023-02-10T05:21:21;101738.0;;;22.60;34.27
48530;BME280;34927;37.302;-121.982;2023-02-10T05:22:27;101736.0;;;22.58;34.20
48530;BME280;34927;37.302;-121.982;2023-02-10T05:23:31;101734.0;;;22.57;34.25
48530;BME280;34927;37.302;-121.982;2023-02-10T05:24:37;101733.0;;;22.67;34.07
48530;BME280;34927;37.302;-121.982;2023-02-10T05:25:42;101733.0;;;22.53;34.44
48530;BME280;34927;37.302;-121.982;2023-02-10T05:26:46;101734.0;;;22.47;34.36
48530;BME280;34927;37.302;-121.982;2023-02-10T05:27:51;101733.0;;;22.43;34.50
48530;BME280;34927;37.302;-121.982;2023-02-10T05:28:56;101733.0;;;22.82;33.82
48530;BME280;34927;37.302;-121.982;2023-02-10T05:30:02;101730.0;;;23.17;33.32
48530;BME280;34927;37.302;-121.982;2023-02-10T05:31:07;101729.0;;;23.48;32.78
48530;BME280;34927;37.302;-121.982;2023-02-10T05:32:11;101731.0;;;23.82;32.33
48530;BME280;34927;37.302;-121.982;2023-02-10T05:33:17;101729.0;;;24.10;31.75
48530;BME280;34927;37.302;-121.982;2023-02-10T05:34:22;101730.0;;;24.22;31.48
48530;BME280;34927;37.302;-121.982;2023-02-10T05:35:27;101726.0;;;24.14;31.67
48530;BME280;34927;37.302;-121.982;2023-02-10T05:36:31;101730.0;;;23.94;32.27
48530;BME280;34927;37.302;-121.982;2023-02-10T05:37:37;101730.0;;;23.64;32.55
48530;BME280;34927;37.302;-121.982;2023-02-10T05:38:42;101729.0;;;23.54;32.57
48530;BME280;34927;37.302;-121.982;2023-02-10T05:39:46;101729.0;;;23.30;33.06
48530;BME280;34927;37.302;-121.982;2023-02-10T05:40:52;101729.0;;;23.21;33.24